sensor_id;sensor_type;location;lat;lon;timestamp;temperature;humidity
19496;DHT22;9888;48.606;9.630;2023-07-08T00:04:41;19.10;83.90
19496;DHT22;9888;48.606;9.630;2023-07-08T00:07:21;19.30;82.50
19496;DHT22;9888;48.606;9.630;2023-07-08T00:09:49;19.40;80.50
19496;DHT22;9888;48.606;9.630;2023-07-08T00:12:16;19.50;81.50
19496;DHT22;9888;48.606;9.630;2023-07-08T00:14:43;19.50;81.20
19496;DHT22;9888;48.606;9.630;2023-07-08T00:17:13;19.40;81.30
19496;DHT22;9888;48.606;9.630;2023-07-08T00:19:42;19.30;84.10
19496;DHT22;9888;48.606;9.630;2023-07-08T00:22:14;19.20;83.60
19496;DHT22;9888;48.606;9.630;2023-07-08T00:24:43;19.10;85.90
19496;DHT22;9888;48.606;9.630;2023-07-08T00:27:12;19.00;83.60
19496;DHT22;9888;48.606;9.630;2023-07-08T00:29:43;19.00;84.00
19496;DHT22;9888;48.606;9.630;2023-07-08T00:32:14;18.90;84.70
19496;DHT22;9888;48.606;9.630;2023-07-08T00:34:42;19.00;83.50
19496;DHT22;9888;48.606;9.630;2023-07-08T00:37:14;19.00;83.90
19496;DHT22;9888;48.606;9.630;2023-07-08T00:39:41;19.10;83.60
19496;DHT22;9888;48.606;9.630;2023-07-08T00:42:18;19.10;84.20
19496;DHT22;9888;48.606;9.630;2023-07-08T00:45:00;19.10;84.00
19496;DHT22;9888;48.606;9.630;2023-07-08T00:47:30;19.00;85.60
19496;DHT22;9888;48.606;9.630;2023-07-08T00:50:02;18.90;85.60
19496;DHT22;9888;48.606;9.630;2023-07-08T00:52:44;18.80;85.80
19496;DHT22;9888;48.606;9.630;2023-07-08T00:55:13;18.60;87.20
19496;DHT22;9888;48.606;9.630;2023-07-08T00:57:43;18.60;87.00
19496;DHT22;9888;48.606;9.630;2023-07-08T01:00:15;18.60;88.60
19496;DHT22;9888;48.606;9.630;2023-07-08T01:02:50;18.30;88.40
19496;DHT22;9888;48.606;9.630;2023-07-08T01:05:32;18.20;89.00
19496;DHT22;9888;48.606;9.630;2023-07-08T01:08:03;18.00;90.50
19496;DHT22;9888;48.606;9.630;2023-07-08T01:10:49;17.90;91.30
19496;DHT22;9888;48.606;9.630;2023-07-08T01:13:21;17.70;90.60
19496;DHT22;9888;48.606;9.630;2023-07-08T01:15:50;17.60;91.10
19496;DHT22;9888;48.606;9.630;2023-07-08T01:18:19;17.50;91.10
19496;DHT22;9888;48.606;9.630;2023-07-08T01:20:52;17.40;90.70
19496;DHT22;9888;48.606;9.630;2023-07-08T01:23:24;17.40;91.50
19496;DHT22;9888;48.606;9.630;2023-07-08T01:25:52;17.40;91.90
19496;DHT22;9888;48.606;9.630;2023-07-08T01:28:21;17.30;92.10
19496;DHT22;9888;48.606;9.630;2023-07-08T01:30:57;17.30;92.80
19496;DHT22;9888;48.606;9.630;2023-07-08T01:33:25;17.20;92.10
19496;DHT22;9888;48.606;9.630;2023-07-08T01:35:52;17.20;91.80
19496;DHT22;9888;48.606;9.630;2023-07-08T01:38:26;17.30;92.20
19496;DHT22;9888;48.606;9.630;2023-07-08T01:40:57;17.20;93.00
19496;DHT22;9888;48.606;9.630;2023-07-08T01:43:26;17.20;93.50
19496;DHT22;9888;48.606;9.630;2023-07-08T01:45:55;17.20;92.20
19496;DHT22;9888;48.606;9.630;2023-07-08T01:48:35;17.20;92.80
19496;DHT22;9888;48.606;9.630;2023-07-08T01:51:06;17.20;91.70
19496;DHT22;9888;48.606;9.630;2023-07-08T01:53:38;17.20;92.60
19496;DHT22;9888;48.606;9.630;2023-07-08T01:56:24;17.20;92.30
19496;DHT22;9888;48.606;9.630;2023-07-08T01:58:52;17.10;92.00
19496;DHT22;9888;48.606;9.630;2023-07-08T02:01:19;17.10;92.30
19496;DHT22;9888;48.606;9.630;2023-07-08T02:03:45;17.20;92.50
19496;DHT22;9888;48.606;9.630;2023-07-08T02:06:13;17.20;92.80
19496;DHT22;9888;48.606;9.630;2023-07-08T02:08:39;17.10;92.60
19496;DHT22;9888;48.606;9.630;2023-07-08T02:11:07;17.10;92.80
19496;DHT22;9888;48.606;9.630;2023-07-08T02:13:35;17.00;93.00
19496;DHT22;9888;48.606;9.630;2023-07-08T02:16:03;17.00;93.20
19496;DHT22;9888;48.606;9.630;2023-07-08T02:18:33;17.00;92.40
19496;DHT22;9888;48.606;9.630;2023-07-08T02:21:00;17.00;93.30
19496;DHT22;9888;48.606;9.630;2023-07-08T02:23:28;16.90;93.80
19496;DHT22;9888;48.606;9.630;2023-07-08T02:25:55;16.90;93.80
19496;DHT22;9888;48.606;9.630;2023-07-08T02:28:43;16.80;94.40
19496;DHT22;9888;48.606;9.630;2023-07-08T02:31:11;16.60;93.90
19496;DHT22;9888;48.606;9.630;2023-07-08T02:33:41;16.60;95.60
19496;DHT22;9888;48.606;9.630;2023-07-08T02:36:10;16.50;95.20
19496;DHT22;9888;48.606;9.630;2023-07-08T02:38:38;16.40;95.50
19496;DHT22;9888;48.606;9.630;2023-07-08T02:41:13;16.30;95.70
19496;DHT22;9888;48.606;9.630;2023-07-08T02:43:44;16.30;94.40
19496;DHT22;9888;48.606;9.630;2023-07-08T02:46:20;16.30;96.60
19496;DHT22;9888;48.606;9.630;2023-07-08T02:48:48;16.20;96.60
19496;DHT22;9888;48.606;9.630;2023-07-08T02:51:32;16.20;95.30
19496;DHT22;9888;48.606;9.630;2023-07-08T02:54:01;16.30;95.50
19496;DHT22;9888;48.606;9.630;2023-07-08T02:56:28;16.30;95.40
19496;DHT22;9888;48.606;9.630;2023-07-08T02:58:57;16.30;95.10
19496;DHT22;9888;48.606;9.630;2023-07-08T03:01:24;16.50;94.60
19496;DHT22;9888;48.606;9.630;2023-07-08T03:06:50;17.00;92.60
19496;DHT22;9888;48.606;9.630;2023-07-08T03:09:18;17.10;95.30
19496;DHT22;9888;48.606;9.630;2023-07-08T03:11:46;17.10;95.70
19496;DHT22;9888;48.606;9.630;2023-07-08T03:17:38;16.90;96.10
19496;DHT22;9888;48.606;9.630;2023-07-08T03:20:10;16.80;96.90
19496;DHT22;9888;48.606;9.630;2023-07-08T03:22:57;16.60;97.50
19496;DHT22;9888;48.606;9.630;2023-07-08T03:25:26;16.70;95.50
19496;DHT22;9888;48.606;9.630;2023-07-08T03:27:53;16.70;97.00
19496;DHT22;9888;48.606;9.630;2023-07-08T03:30:53;16.60;97.50
19496;DHT22;9888;48.606;9.630;2023-07-08T03:33:23;16.70;96.30
19496;DHT22;9888;48.606;9.630;2023-07-08T03:36:18;16.70;97.20
19496;DHT22;9888;48.606;9.630;2023-07-08T03:38:56;16.60;97.70
19496;DHT22;9888;48.606;9.630;2023-07-08T03:41:26;16.50;97.80
19496;DHT22;9888;48.606;9.630;2023-07-08T03:43:54;16.40;97.40
19496;DHT22;9888;48.606;9.630;2023-07-08T03:46:39;16.40;98.20
19496;DHT22;9888;48.606;9.630;2023-07-08T03:49:07;16.40;99.10
19496;DHT22;9888;48.606;9.630;2023-07-08T03:51:37;16.30;99.30
19496;DHT22;9888;48.606;9.630;2023-07-08T03:54:07;16.30;98.90
19496;DHT22;9888;48.606;9.630;2023-07-08T03:56:35;16.30;98.50
19496;DHT22;9888;48.606;9.630;2023-07-08T03:59:02;16.20;98.30
19496;DHT22;9888;48.606;9.630;2023-07-08T04:01:32;16.40;98.50
19496;DHT22;9888;48.606;9.630;2023-07-08T04:04:01;16.40;99.00
19496;DHT22;9888;48.606;9.630;2023-07-08T04:06:38;16.60;98.30
19496;DHT22;9888;48.606;9.630;2023-07-08T04:09:05;16.90;97.70
19496;DHT22;9888;48.606;9.630;2023-07-08T04:11:34;17.20;96.90
19496;DHT22;9888;48.606;9.630;2023-07-08T04:14:01;17.50;97.20
19496;DHT22;9888;48.606;9.630;2023-07-08T04:16:44;17.80;96.40
19496;DHT22;9888;48.606;9.630;2023-07-08T04:19:16;18.00;96.10
19496;DHT22;9888;48.606;9.630;2023-07-08T04:21:44;18.30;95.80
19496;DHT22;9888;48.606;9.630;2023-07-08T04:24:14;18.50;95.40
19496;DHT22;9888;48.606;9.630;2023-07-08T04:26:47;18.70;95.10
19496;DHT22;9888;48.606;9.630;2023-07-08T04:29:18;18.80;95.00
19496;DHT22;9888;48.606;9.630;2023-07-08T04:31:52;19.00;94.90
19496;DHT22;9888;48.606;9.630;2023-07-08T04:37:15;19.20;96.50
19496;DHT22;9888;48.606;9.630;2023-07-08T04:39:44;19.20;97.90
19496;DHT22;9888;48.606;9.630;2023-07-08T04:42:13;19.10;98.30
19496;DHT22;9888;48.606;9.630;2023-07-08T04:44:44;19.10;99.30
19496;DHT22;9888;48.606;9.630;2023-07-08T04:47:15;19.00;99.80
19496;DHT22;9888;48.606;9.630;2023-07-08T04:49:42;18.90;99.90
19496;DHT22;9888;48.606;9.630;2023-07-08T04:52:10;19.00;99.90
19496;DHT22;9888;48.606;9.630;2023-07-08T04:54:36;19.00;99.90
19496;DHT22;9888;48.606;9.630;2023-07-08T04:57:04;19.20;99.90
19496;DHT22;9888;48.606;9.630;2023-07-08T04:59:33;19.30;99.90
19496;DHT22;9888;48.606;9.630;2023-07-08T05:02:02;19.50;99.90
19496;DHT22;9888;48.606;9.630;2023-07-08T05:04:30;19.80;99.90
19496;DHT22;9888;48.606;9.630;2023-07-08T05:06:58;20.00;99.90
19496;DHT22;9888;48.606;9.630;2023-07-08T05:09:25;20.30;99.90
19496;DHT22;9888;48.606;9.630;2023-07-08T05:11:53;20.50;99.90
19496;DHT22;9888;48.606;9.630;2023-07-08T05:14:24;20.70;99.70
19496;DHT22;9888;48.606;9.630;2023-07-08T05:16:51;20.80;99.90
19496;DHT22;9888;48.606;9.630;2023-07-08T05:19:18;20.70;99.90
19496;DHT22;9888;48.606;9.630;2023-07-08T05:21:48;20.70;99.90
19496;DHT22;9888;48.606;9.630;2023-07-08T05:24:16;20.80;99.90
19496;DHT22;9888;48.606;9.630;2023-07-08T05:26:44;20.80;99.90
19496;DHT22;9888;48.606;9.630;2023-07-08T05:29:13;20.70;98.80
19496;DHT22;9888;48.606;9.630;2023-07-08T05:31:42;20.60;98.70
19496;DHT22;9888;48.606;9.630;2023-07-08T05:34:09;20.60;99.60
19496;DHT22;9888;48.606;9.630;2023-07-08T05:36:36;20.60;99.90
19496;DHT22;9888;48.606;9.630;2023-07-08T05:39:04;20.80;99.90
19496;DHT22;9888;48.606;9.630;2023-07-08T05:41:41;21.00;99.40
19496;DHT22;9888;48.606;9.630;2023-07-08T05:44:14;21.10;99.10
19496;DHT22;9888;48.606;9.630;2023-07-08T05:46:41;21.40;98.70
19496;DHT22;9888;48.606;9.630;2023-07-08T05:49:08;21.70;98.30
19496;DHT22;9888;48.606;9.630;2023-07-08T05:51:37;21.70;97.60
19496;DHT22;9888;48.606;9.630;2023-07-08T05:54:05;21.90;98.20
19496;DHT22;9888;48.606;9.630;2023-07-08T05:56:34;22.10;99.20
19496;DHT22;9888;48.606;9.630;2023-07-08T05:59:01;22.10;98.70
19496;DHT22;9888;48.606;9.630;2023-07-08T06:01:29;22.00;99.00
19496;DHT22;9888;48.606;9.630;2023-07-08T06:04:07;21.80;99.00
19496;DHT22;9888;48.606;9.630;2023-07-08T06:06:45;21.70;99.70
19496;DHT22;9888;48.606;9.630;2023-07-08T06:12:39;21.70;99.90
19496;DHT22;9888;48.606;9.630;2023-07-08T06:15:16;21.70;99.90
19496;DHT22;9888;48.606;9.630;2023-07-08T06:17:47;21.70;99.90
19496;DHT22;9888;48.606;9.630;2023-07-08T06:20:24;21.70;99.90
19496;DHT22;9888;48.606;9.630;2023-07-08T06:22:57;21.70;99.90
19496;DHT22;9888;48.606;9.630;2023-07-08T06:25:29;21.70;99.90
19496;DHT22;9888;48.606;9.630;2023-07-08T06:28:04;21.80;99.90
19496;DHT22;9888;48.606;9.630;2023-07-08T06:30:36;21.90;99.90
19496;DHT22;9888;48.606;9.630;2023-07-08T06:33:28;22.00;99.90
19496;DHT22;9888;48.606;9.630;2023-07-08T06:36:00;22.20;97.80
19496;DHT22;9888;48.606;9.630;2023-07-08T06:42:00;22.50;97.30
19496;DHT22;9888;48.606;9.630;2023-07-08T06:44:50;22.60;96.40
19496;DHT22;9888;48.606;9.630;2023-07-08T06:47:27;22.70;96.60
19496;DHT22;9888;48.606;9.630;2023-07-08T06:49:55;22.70;96.50
19496;DHT22;9888;48.606;9.630;2023-07-08T06:52:22;22.70;96.40
19496;DHT22;9888;48.606;9.630;2023-07-08T06:57:59;22.90;96.20
19496;DHT22;9888;48.606;9.630;2023-07-08T07:04:08;23.00;97.20
19496;DHT22;9888;48.606;9.630;2023-07-08T07:06:56;23.10;96.40
19496;DHT22;9888;48.606;9.630;2023-07-08T07:09:42;23.00;95.80
19496;DHT22;9888;48.606;9.630;2023-07-08T07:12:18;23.00;95.40
19496;DHT22;9888;48.606;9.630;2023-07-08T07:14:59;23.00;95.90
19496;DHT22;9888;48.606;9.630;2023-07-08T07:17:43;23.00;95.50
19496;DHT22;9888;48.606;9.630;2023-07-08T07:20:14;22.90;96.20
19496;DHT22;9888;48.606;9.630;2023-07-08T07:22:51;22.90;95.80
19496;DHT22;9888;48.606;9.630;2023-07-08T07:25:25;22.80;95.40
19496;DHT22;9888;48.606;9.630;2023-07-08T07:27:54;22.90;95.70
19496;DHT22;9888;48.606;9.630;2023-07-08T07:30:59;22.90;95.90
19496;DHT22;9888;48.606;9.630;2023-07-08T07:33:30;22.90;96.30
19496;DHT22;9888;48.606;9.630;2023-07-08T07:36:17;23.00;96.30
19496;DHT22;9888;48.606;9.630;2023-07-08T07:38:45;23.00;96.70
19496;DHT22;9888;48.606;9.630;2023-07-08T07:41:13;23.20;96.80
19496;DHT22;9888;48.606;9.630;2023-07-08T07:43:58;23.10;96.60
19496;DHT22;9888;48.606;9.630;2023-07-08T07:46:34;23.40;96.00
19496;DHT22;9888;48.606;9.630;2023-07-08T07:49:02;23.40;95.60
19496;DHT22;9888;48.606;9.630;2023-07-08T07:51:50;23.70;96.00
19496;DHT22;9888;48.606;9.630;2023-07-08T07:54:18;23.70;96.10
19496;DHT22;9888;48.606;9.630;2023-07-08T07:56:53;23.70;95.70
19496;DHT22;9888;48.606;9.630;2023-07-08T07:59:26;23.80;95.60
19496;DHT22;9888;48.606;9.630;2023-07-08T08:01:55;24.00;96.40
19496;DHT22;9888;48.606;9.630;2023-07-08T08:04:37;24.20;96.10
19496;DHT22;9888;48.606;9.630;2023-07-08T08:07:08;23.90;95.60
19496;DHT22;9888;48.606;9.630;2023-07-08T08:09:37;23.90;95.60
19496;DHT22;9888;48.606;9.630;2023-07-08T08:12:23;23.60;95.20
19496;DHT22;9888;48.606;9.630;2023-07-08T08:14:58;23.40;96.30
19496;DHT22;9888;48.606;9.630;2023-07-08T08:17:27;23.30;96.00
19496;DHT22;9888;48.606;9.630;2023-07-08T08:23:20;23.50;97.70
19496;DHT22;9888;48.606;9.630;2023-07-08T08:25:58;23.90;98.10
19496;DHT22;9888;48.606;9.630;2023-07-08T08:28:25;24.30;98.70
19496;DHT22;9888;48.606;9.630;2023-07-08T08:31:10;24.50;95.80
19496;DHT22;9888;48.606;9.630;2023-07-08T08:33:41;24.80;97.40
19496;DHT22;9888;48.606;9.630;2023-07-08T08:36:10;25.00;96.30
19496;DHT22;9888;48.606;9.630;2023-07-08T08:38:44;25.40;96.70
19496;DHT22;9888;48.606;9.630;2023-07-08T08:41:19;25.70;95.90
19496;DHT22;9888;48.606;9.630;2023-07-08T08:44:15;25.90;96.10
19496;DHT22;9888;48.606;9.630;2023-07-08T08:47:08;26.30;97.20
19496;DHT22;9888;48.606;9.630;2023-07-08T08:53:02;26.50;94.60
19496;DHT22;9888;48.606;9.630;2023-07-08T08:59:38;26.40;93.50
19496;DHT22;9888;48.606;9.630;2023-07-08T09:13:28;25.60;93.10
19496;DHT22;9888;48.606;9.630;2023-07-08T09:25:58;26.30;96.20
19496;DHT22;9888;48.606;9.630;2023-07-08T09:28:52;25.90;94.70
19496;DHT22;9888;48.606;9.630;2023-07-08T09:45:45;25.10;94.70
19496;DHT22;9888;48.606;9.630;2023-07-08T09:55:28;24.70;95.40
19496;DHT22;9888;48.606;9.630;2023-07-08T09:58:02;24.60;95.00
19496;DHT22;9888;48.606;9.630;2023-07-08T10:01:09;24.60;94.50
19496;DHT22;9888;48.606;9.630;2023-07-08T10:04:08;24.60;95.50
19496;DHT22;9888;48.606;9.630;2023-07-08T10:06:45;24.80;95.70
19496;DHT22;9888;48.606;9.630;2023-07-08T10:09:23;24.90;95.20
19496;DHT22;9888;48.606;9.630;2023-07-08T10:12:03;25.10;95.00
19496;DHT22;9888;48.606;9.630;2023-07-08T10:14:56;25.30;96.40
19496;DHT22;9888;48.606;9.630;2023-07-08T10:17:40;25.70;95.70
19496;DHT22;9888;48.606;9.630;2023-07-08T10:20:16;26.10;95.70
19496;DHT22;9888;48.606;9.630;2023-07-08T10:22:58;26.30;94.50
19496;DHT22;9888;48.606;9.630;2023-07-08T10:25:40;26.60;94.70
19496;DHT22;9888;48.606;9.630;2023-07-08T10:28:43;27.00;93.20
19496;DHT22;9888;48.606;9.630;2023-07-08T10:34:42;27.60;93.60
19496;DHT22;9888;48.606;9.630;2023-07-08T10:40:19;29.20;93.00
19496;DHT22;9888;48.606;9.630;2023-07-08T10:46:17;29.50;90.80
19496;DHT22;9888;48.606;9.630;2023-07-08T10:55:20;29.50;90.80
19496;DHT22;9888;48.606;9.630;2023-07-08T11:06:53;30.00;90.10
19496;DHT22;9888;48.606;9.630;2023-07-08T11:09:49;30.30;90.40
19496;DHT22;9888;48.606;9.630;2023-07-08T11:15:56;30.80;90.10
19496;DHT22;9888;48.606;9.630;2023-07-08T11:21:23;31.40;87.30
19496;DHT22;9888;48.606;9.630;2023-07-08T11:24:08;31.60;86.10
19496;DHT22;9888;48.606;9.630;2023-07-08T11:29:45;32.00;85.70
19496;DHT22;9888;48.606;9.630;2023-07-08T11:32:16;32.00;85.30
19496;DHT22;9888;48.606;9.630;2023-07-08T11:34:47;31.90;86.40
19496;DHT22;9888;48.606;9.630;2023-07-08T11:37:18;31.80;84.90
19496;DHT22;9888;48.606;9.630;2023-07-08T11:40:06;31.90;84.90
19496;DHT22;9888;48.606;9.630;2023-07-08T11:43:03;31.70;83.90
19496;DHT22;9888;48.606;9.630;2023-07-08T11:45:38;32.10;86.00
19496;DHT22;9888;48.606;9.630;2023-07-08T11:48:16;32.70;86.80
19496;DHT22;9888;48.606;9.630;2023-07-08T11:50:49;33.10;84.80
19496;DHT22;9888;48.606;9.630;2023-07-08T12:00:25;33.70;82.00
19496;DHT22;9888;48.606;9.630;2023-07-08T12:03:18;34.00;80.40
19496;DHT22;9888;48.606;9.630;2023-07-08T12:05:47;33.50;80.80
19496;DHT22;9888;48.606;9.630;2023-07-08T12:08:18;33.50;85.20
19496;DHT22;9888;48.606;9.630;2023-07-08T12:10:52;33.90;84.00
19496;DHT22;9888;48.606;9.630;2023-07-08T12:13:23;33.80;78.80
19496;DHT22;9888;48.606;9.630;2023-07-08T12:15:51;33.90;79.90
19496;DHT22;9888;48.606;9.630;2023-07-08T12:18:24;34.60;78.60
19496;DHT22;9888;48.606;9.630;2023-07-08T12:20:58;35.40;77.60
19496;DHT22;9888;48.606;9.630;2023-07-08T12:23:30;36.80;75.00
19496;DHT22;9888;48.606;9.630;2023-07-08T12:26:17;37.80;76.00
19496;DHT22;9888;48.606;9.630;2023-07-08T12:28:51;38.30;69.80
19496;DHT22;9888;48.606;9.630;2023-07-08T12:31:22;38.10;69.80
19496;DHT22;9888;48.606;9.630;2023-07-08T12:34:03;38.80;70.60
19496;DHT22;9888;48.606;9.630;2023-07-08T12:36:39;40.40;72.60
19496;DHT22;9888;48.606;9.630;2023-07-08T12:39:14;41.80;67.70
19496;DHT22;9888;48.606;9.630;2023-07-08T12:45:15;41.30;64.00
19496;DHT22;9888;48.606;9.630;2023-07-08T12:47:44;41.70;67.50
19496;DHT22;9888;48.606;9.630;2023-07-08T12:50:39;42.00;63.90
19496;DHT22;9888;48.606;9.630;2023-07-08T12:53:15;42.40;62.00
19496;DHT22;9888;48.606;9.630;2023-07-08T12:55:45;41.60;59.10
19496;DHT22;9888;48.606;9.630;2023-07-08T12:58:20;39.40;60.00
19496;DHT22;9888;48.606;9.630;2023-07-08T13:00:52;38.50;62.30
19496;DHT22;9888;48.606;9.630;2023-07-08T13:03:24;37.60;63.60
19496;DHT22;9888;48.606;9.630;2023-07-08T13:05:55;36.00;65.70
19496;DHT22;9888;48.606;9.630;2023-07-08T13:08:29;37.40;66.40
19496;DHT22;9888;48.606;9.630;2023-07-08T13:11:02;38.30;66.70
19496;DHT22;9888;48.606;9.630;2023-07-08T13:13:53;40.10;65.20
19496;DHT22;9888;48.606;9.630;2023-07-08T13:16:26;39.90;62.00
19496;DHT22;9888;48.606;9.630;2023-07-08T13:19:07;40.70;61.00
19496;DHT22;9888;48.606;9.630;2023-07-08T13:21:37;39.60;60.00
19496;DHT22;9888;48.606;9.630;2023-07-08T13:24:11;41.20;62.90
19496;DHT22;9888;48.606;9.630;2023-07-08T13:26:38;41.90;60.00
19496;DHT22;9888;48.606;9.630;2023-07-08T13:29:18;42.20;57.10
19496;DHT22;9888;48.606;9.630;2023-07-08T13:32:04;42.70;56.90
19496;DHT22;9888;48.606;9.630;2023-07-08T13:34:33;42.60;55.50
19496;DHT22;9888;48.606;9.630;2023-07-08T13:37:01;42.80;56.60
19496;DHT22;9888;48.606;9.630;2023-07-08T13:39:38;42.80;57.80
19496;DHT22;9888;48.606;9.630;2023-07-08T13:45:54;41.10;55.80
19496;DHT22;9888;48.606;9.630;2023-07-08T13:48:49;39.70;59.00
19496;DHT22;9888;48.606;9.630;2023-07-08T13:51:24;40.30;57.60
19496;DHT22;9888;48.606;9.630;2023-07-08T13:54:27;41.70;55.20
19496;DHT22;9888;48.606;9.630;2023-07-08T13:57:01;42.70;54.90
19496;DHT22;9888;48.606;9.630;2023-07-08T13:59:30;44.10;56.50
19496;DHT22;9888;48.606;9.630;2023-07-08T14:01:58;44.30;55.30
19496;DHT22;9888;48.606;9.630;2023-07-08T14:04:50;44.40;53.10
19496;DHT22;9888;48.606;9.630;2023-07-08T14:07:28;44.40;54.20
19496;DHT22;9888;48.606;9.630;2023-07-08T14:10:42;44.40;54.30
19496;DHT22;9888;48.606;9.630;2023-07-08T14:13:22;44.50;53.90
19496;DHT22;9888;48.606;9.630;2023-07-08T14:15:54;44.20;54.70
19496;DHT22;9888;48.606;9.630;2023-07-08T14:18:32;44.50;55.20
19496;DHT22;9888;48.606;9.630;2023-07-08T14:21:05;44.40;53.40
19496;DHT22;9888;48.606;9.630;2023-07-08T14:23:40;44.20;52.80
19496;DHT22;9888;48.606;9.630;2023-07-08T14:26:13;43.60;52.50
19496;DHT22;9888;48.606;9.630;2023-07-08T14:28:42;43.90;54.00
19496;DHT22;9888;48.606;9.630;2023-07-08T14:31:19;44.30;53.10
19496;DHT22;9888;48.606;9.630;2023-07-08T14:34:24;43.80;52.10
19496;DHT22;9888;48.606;9.630;2023-07-08T14:37:17;43.80;52.50
19496;DHT22;9888;48.606;9.630;2023-07-08T14:39:54;41.90;51.80
19496;DHT22;9888;48.606;9.630;2023-07-08T14:42:22;40.20;54.60
19496;DHT22;9888;48.606;9.630;2023-07-08T14:44:56;40.40;55.50
19496;DHT22;9888;48.606;9.630;2023-07-08T14:47:27;40.90;56.10
19496;DHT22;9888;48.606;9.630;2023-07-08T14:50:02;41.10;54.90
19496;DHT22;9888;48.606;9.630;2023-07-08T14:52:38;41.00;54.70
19496;DHT22;9888;48.606;9.630;2023-07-08T14:55:08;41.10;58.30
19496;DHT22;9888;48.606;9.630;2023-07-08T15:00:44;42.70;56.30
19496;DHT22;9888;48.606;9.630;2023-07-08T15:06:33;42.60;54.10
19496;DHT22;9888;48.606;9.630;2023-07-08T15:09:02;43.10;53.60
19496;DHT22;9888;48.606;9.630;2023-07-08T15:11:31;43.80;55.40
19496;DHT22;9888;48.606;9.630;2023-07-08T15:16:57;43.60;55.20
19496;DHT22;9888;48.606;9.630;2023-07-08T15:19:32;43.00;54.60
19496;DHT22;9888;48.606;9.630;2023-07-08T15:22:02;41.70;54.00
19496;DHT22;9888;48.606;9.630;2023-07-08T15:25:02;40.40;56.40
19496;DHT22;9888;48.606;9.630;2023-07-08T15:27:32;38.50;58.50
19496;DHT22;9888;48.606;9.630;2023-07-08T15:30:00;37.10;59.40
19496;DHT22;9888;48.606;9.630;2023-07-08T15:32:29;36.30;64.30
19496;DHT22;9888;48.606;9.630;2023-07-08T15:34:56;36.40;63.90
19496;DHT22;9888;48.606;9.630;2023-07-08T15:37:26;35.90;63.40
19496;DHT22;9888;48.606;9.630;2023-07-08T15:39:59;35.20;65.40
19496;DHT22;9888;48.606;9.630;2023-07-08T15:42:33;35.30;65.00
19496;DHT22;9888;48.606;9.630;2023-07-08T15:45:13;35.30;66.50
19496;DHT22;9888;48.606;9.630;2023-07-08T15:47:42;36.00;66.60
19496;DHT22;9888;48.606;9.630;2023-07-08T15:50:16;36.80;65.60
19496;DHT22;9888;48.606;9.630;2023-07-08T15:52:43;38.10;61.10
19496;DHT22;9888;48.606;9.630;2023-07-08T15:55:17;39.10;59.40
19496;DHT22;9888;48.606;9.630;2023-07-08T15:58:06;39.90;58.30
19496;DHT22;9888;48.606;9.630;2023-07-08T16:00:40;40.00;58.40
19496;DHT22;9888;48.606;9.630;2023-07-08T16:03:16;39.60;57.90
19496;DHT22;9888;48.606;9.630;2023-07-08T16:05:47;37.80;58.60
19496;DHT22;9888;48.606;9.630;2023-07-08T16:08:20;36.50;61.10
19496;DHT22;9888;48.606;9.630;2023-07-08T16:17:42;36.00;64.50
19496;DHT22;9888;48.606;9.630;2023-07-08T16:20:18;37.40;62.50
19496;DHT22;9888;48.606;9.630;2023-07-08T16:22:47;38.20;59.10
19496;DHT22;9888;48.606;9.630;2023-07-08T16:25:18;38.70;58.60
19496;DHT22;9888;48.606;9.630;2023-07-08T16:27:49;39.40;58.10
19496;DHT22;9888;48.606;9.630;2023-07-08T16:30:20;40.20;58.30
19496;DHT22;9888;48.606;9.630;2023-07-08T16:32:49;40.10;56.40
19496;DHT22;9888;48.606;9.630;2023-07-08T16:35:34;40.50;57.00
19496;DHT22;9888;48.606;9.630;2023-07-08T16:38:02;40.60;56.30
19496;DHT22;9888;48.606;9.630;2023-07-08T16:40:32;40.40;55.50
19496;DHT22;9888;48.606;9.630;2023-07-08T16:42:59;40.60;56.90
19496;DHT22;9888;48.606;9.630;2023-07-08T16:45:28;40.60;56.50
19496;DHT22;9888;48.606;9.630;2023-07-08T16:47:56;40.60;55.30
19496;DHT22;9888;48.606;9.630;2023-07-08T16:50:26;41.10;54.70
19496;DHT22;9888;48.606;9.630;2023-07-08T16:52:55;40.70;54.70
19496;DHT22;9888;48.606;9.630;2023-07-08T16:55:23;40.00;55.10
19496;DHT22;9888;48.606;9.630;2023-07-08T16:57:58;40.50;56.30
19496;DHT22;9888;48.606;9.630;2023-07-08T17:00:37;40.10;55.50
19496;DHT22;9888;48.606;9.630;2023-07-08T17:03:08;40.10;56.40
19496;DHT22;9888;48.606;9.630;2023-07-08T17:05:37;39.90;56.10
19496;DHT22;9888;48.606;9.630;2023-07-08T17:08:04;39.60;56.40
19496;DHT22;9888;48.606;9.630;2023-07-08T17:10:35;39.40;57.50
19496;DHT22;9888;48.606;9.630;2023-07-08T17:13:05;39.30;56.80
19496;DHT22;9888;48.606;9.630;2023-07-08T17:15:35;39.50;55.90
19496;DHT22;9888;48.606;9.630;2023-07-08T17:18:05;39.00;56.50
19496;DHT22;9888;48.606;9.630;2023-07-08T17:20:36;38.60;56.50
19496;DHT22;9888;48.606;9.630;2023-07-08T17:23:18;38.00;58.00
19496;DHT22;9888;48.606;9.630;2023-07-08T17:25:46;37.60;59.50
19496;DHT22;9888;48.606;9.630;2023-07-08T17:28:20;37.20;57.60
19496;DHT22;9888;48.606;9.630;2023-07-08T17:30:51;36.80;57.40
19496;DHT22;9888;48.606;9.630;2023-07-08T17:33:23;36.80;58.80
19496;DHT22;9888;48.606;9.630;2023-07-08T17:35:51;36.90;58.90
19496;DHT22;9888;48.606;9.630;2023-07-08T17:38:44;36.90;59.60
19496;DHT22;9888;48.606;9.630;2023-07-08T17:41:18;36.80;58.40
19496;DHT22;9888;48.606;9.630;2023-07-08T17:43:48;36.20;58.40
19496;DHT22;9888;48.606;9.630;2023-07-08T17:49:47;35.40;59.30
19496;DHT22;9888;48.606;9.630;2023-07-08T17:52:20;35.20;59.10
19496;DHT22;9888;48.606;9.630;2023-07-08T17:54:48;35.40;61.40
19496;DHT22;9888;48.606;9.630;2023-07-08T17:57:20;35.10;59.90
19496;DHT22;9888;48.606;9.630;2023-07-08T17:59:49;34.70;59.70
19496;DHT22;9888;48.606;9.630;2023-07-08T18:02:18;33.80;61.10
19496;DHT22;9888;48.606;9.630;2023-07-08T18:04:51;32.90;63.30
19496;DHT22;9888;48.606;9.630;2023-07-08T18:07:19;31.90;66.60
19496;DHT22;9888;48.606;9.630;2023-07-08T18:09:47;31.20;70.40
19496;DHT22;9888;48.606;9.630;2023-07-08T18:12:15;30.50;72.70
19496;DHT22;9888;48.606;9.630;2023-07-08T18:14:47;29.90;73.00
19496;DHT22;9888;48.606;9.630;2023-07-08T18:17:17;29.40;74.10
19496;DHT22;9888;48.606;9.630;2023-07-08T18:19:46;28.80;74.30
19496;DHT22;9888;48.606;9.630;2023-07-08T18:22:17;28.60;76.40
19496;DHT22;9888;48.606;9.630;2023-07-08T18:24:49;28.20;77.80
19496;DHT22;9888;48.606;9.630;2023-07-08T18:27:17;27.90;78.90
19496;DHT22;9888;48.606;9.630;2023-07-08T18:29:44;27.40;81.90
19496;DHT22;9888;48.606;9.630;2023-07-08T18:32:11;27.20;83.00
19496;DHT22;9888;48.606;9.630;2023-07-08T18:34:41;26.90;82.70
19496;DHT22;9888;48.606;9.630;2023-07-08T18:37:09;26.70;87.10
19496;DHT22;9888;48.606;9.630;2023-07-08T18:39:36;26.30;89.40
19496;DHT22;9888;48.606;9.630;2023-07-08T18:42:04;25.90;91.00
19496;DHT22;9888;48.606;9.630;2023-07-08T18:44:32;25.50;92.20
19496;DHT22;9888;48.606;9.630;2023-07-08T18:47:02;25.20;92.60
19496;DHT22;9888;48.606;9.630;2023-07-08T18:49:30;24.80;93.30
19496;DHT22;9888;48.606;9.630;2023-07-08T18:51:57;24.50;93.60
19496;DHT22;9888;48.606;9.630;2023-07-08T18:54:25;24.20;94.60